createdAt,value
2019-01-23T00:00:30.845Z,21.17
2019-01-23T00:03:01.308Z,22.80
2019-01-23T00:05:31.714Z,19.83
2019-01-23T00:08:02.280Z,21.87
2019-01-23T00:10:32.757Z,23.67
2019-01-23T00:13:03.564Z,20.77
2019-01-23T00:15:34.231Z,23.33
2019-01-23T00:18:04.837Z,20.77
2019-01-23T00:20:35.452Z,24.03
2019-01-23T00:23:05.933Z,22.87
2019-01-23T00:25:36.455Z,23.53
2019-01-23T00:28:07.042Z,19.33
2019-01-23T00:30:37.648Z,20.77
2019-01-23T00:33:08.165Z,21.07
2019-01-23T00:35:38.783Z,21.67
2019-01-23T00:38:09.277Z,22.50
2019-01-23T00:40:39.864Z,21.23
2019-01-23T00:43:10.390Z,21.20
2019-01-23T00:45:41.023Z,21.63
2019-01-23T00:48:11.507Z,21.00
2019-01-23T00:50:42.128Z,20.93
2019-01-23T00:53:12.619Z,18.07
2019-01-23T00:55:43.100Z,19.93
2019-01-23T00:58:13.624Z,21.83
2019-01-23T01:00:44.055Z,19.23
2019-01-23T01:03:14.582Z,20.67
2019-01-23T01:05:45.208Z,20.47
2019-01-23T01:08:15.614Z,19.10
2019-01-23T01:10:46.211Z,20.37
2019-01-23T01:13:16.691Z,20.43
2019-01-23T01:15:47.164Z,22.03
2019-01-23T01:18:17.561Z,21.17
2019-01-23T01:20:48.157Z,22.87
2019-01-23T01:23:18.623Z,22.93
2019-01-23T01:25:49.189Z,19.87
2019-01-23T01:28:19.767Z,19.40
2019-01-23T01:30:50.242Z,20.30
2019-01-23T01:33:20.813Z,21.37
2019-01-23T01:35:51.325Z,21.37
2019-01-23T01:38:21.881Z,19.87
2019-01-23T01:40:52.297Z,21.40
2019-01-23T01:43:22.904Z,21.27
2019-01-23T01:45:53.310Z,22.67
2019-01-23T01:48:23.887Z,22.00
2019-01-23T01:50:54.443Z,22.60
2019-01-23T01:53:25.390Z,22.20
2019-01-23T01:55:55.966Z,22.70
2019-01-23T01:58:26.523Z,22.70
2019-01-23T02:00:57.033Z,22.97
2019-01-23T02:03:27.736Z,21.57
2019-01-23T02:05:58.304Z,22.17
2019-01-23T02:08:28.948Z,24.17
2019-01-23T02:10:59.534Z,24.20
2019-01-23T02:13:30.123Z,24.67
2019-01-23T02:16:00.728Z,23.87
2019-01-23T02:18:31.354Z,24.23
2019-01-23T02:21:01.972Z,24.03
2019-01-23T02:23:33.006Z,23.87
2019-01-23T02:26:03.532Z,24.33
2019-01-23T02:28:34.169Z,25.03
2019-01-23T02:31:04.832Z,22.67
2019-01-23T02:33:35.333Z,26.13
2019-01-23T02:36:05.918Z,25.47
2019-01-23T02:38:36.573Z,25.30
2019-01-23T02:41:07.053Z,25.03
2019-01-23T02:43:37.708Z,26.10
2019-01-23T02:46:08.314Z,26.20
2019-01-23T02:48:38.960Z,25.13
2019-01-23T02:51:09.639Z,26.77
2019-01-23T02:53:40.083Z,27.10
2019-01-23T02:56:10.650Z,27.77
2019-01-23T02:58:41.296Z,26.93
2019-01-23T03:01:12.133Z,26.53
2019-01-23T03:03:42.789Z,25.27
2019-01-23T03:06:13.394Z,26.33
2019-01-23T03:08:44.051Z,26.60
2019-01-23T03:11:14.616Z,25.90
2019-01-23T03:13:45.283Z,25.30
2019-01-23T03:16:15.891Z,24.53
2019-01-23T03:18:46.546Z,24.53
2019-01-23T03:21:17.182Z,28.40
2019-01-23T03:23:47.828Z,26.47
2019-01-23T03:26:18.466Z,25.17
2019-01-23T03:28:49.111Z,24.40
2019-01-23T03:31:19.688Z,25.90
2019-01-23T03:33:50.305Z,25.00
2019-01-23T03:36:20.950Z,24.67
2019-01-23T03:38:51.646Z,26.50
2019-01-23T03:41:22.172Z,26.17
2019-01-23T03:43:52.762Z,26.23
2019-01-23T03:46:23.385Z,25.40
2019-01-23T03:48:54.023Z,26.53
2019-01-23T03:51:24.869Z,26.30
2019-01-23T03:53:55.555Z,25.80
2019-01-23T03:56:26.175Z,24.67
2019-01-23T03:58:56.837Z,26.07
2019-01-23T04:01:27.426Z,25.23
2019-01-23T04:03:58.090Z,24.77
2019-01-23T04:06:28.728Z,25.60
2019-01-23T04:08:59.363Z,26.17
2019-01-23T04:11:29.968Z,26.33
2019-01-23T04:14:00.635Z,25.17
2019-01-23T04:16:50.427Z,23.87
2019-01-23T04:19:21.122Z,25.83
2019-01-23T04:21:51.758Z,23.20
2019-01-23T04:24:22.395Z,24.73
2019-01-23T04:26:52.991Z,23.83
2019-01-23T04:29:23.647Z,24.53
2019-01-23T04:31:54.255Z,23.73
2019-01-23T04:34:24.870Z,24.30
2019-01-23T04:36:55.486Z,24.57
2019-01-23T04:39:26.151Z,24.57
2019-01-23T04:41:56.804Z,23.40
2019-01-23T04:44:27.426Z,25.00
2019-01-23T04:46:58.051Z,23.77
2019-01-23T04:49:28.638Z,22.83
2019-01-23T04:52:13.778Z,25.47
2019-01-23T04:54:44.397Z,24.83
2019-01-23T04:57:14.991Z,24.27
2019-01-23T04:59:46.905Z,24.77
2019-01-23T05:02:17.794Z,22.80
2019-01-23T05:04:48.460Z,25.10
2019-01-23T05:07:19.098Z,23.17
2019-01-23T05:09:49.782Z,24.43
2019-01-23T05:12:20.621Z,28.00
2019-01-23T05:14:51.265Z,25.70
2019-01-23T05:17:21.881Z,26.43
2019-01-23T05:19:52.497Z,24.20
2019-01-23T05:22:23.123Z,24.80
2019-01-23T05:24:53.740Z,25.33
2019-01-23T05:27:24.347Z,25.37
2019-01-23T05:29:55.270Z,23.63
2019-01-23T05:32:25.909Z,22.63
2019-01-23T05:34:56.458Z,23.93
2019-01-23T05:37:27.072Z,23.70
2019-01-23T05:39:57.689Z,22.33
2019-01-23T05:42:28.317Z,23.13
2019-01-23T05:44:58.950Z,22.63
2019-01-23T05:47:29.921Z,24.57
2019-01-23T05:50:00.552Z,23.70
2019-01-23T05:52:31.209Z,24.07
2019-01-23T05:55:01.885Z,23.13
2019-01-23T05:57:32.513Z,23.43
2019-01-23T06:00:03.139Z,25.63
2019-01-23T06:02:33.814Z,21.77
2019-01-23T06:05:05.071Z,23.03
2019-01-23T06:07:35.647Z,23.03
2019-01-23T06:10:06.685Z,23.10
2019-01-23T06:12:37.382Z,23.27
2019-01-23T06:15:09.016Z,22.43
2019-01-23T06:17:39.612Z,22.23
2019-01-23T06:20:12.460Z,23.13
2019-01-23T06:22:43.138Z,23.33
2019-01-23T06:25:13.914Z,21.90
2019-01-23T06:27:45.508Z,21.90
2019-01-23T06:30:18.436Z,21.97
2019-01-23T06:32:49.093Z,23.03
2019-01-23T06:35:19.579Z,21.97
2019-01-23T06:37:50.126Z,22.23
2019-01-23T06:40:20.750Z,22.90
2019-01-23T06:42:51.418Z,22.27
2019-01-23T06:45:22.207Z,21.33
2019-01-23T06:47:52.839Z,21.43
2019-01-23T06:50:23.746Z,19.63
2019-01-23T06:52:54.433Z,20.63
2019-01-23T06:55:25.118Z,22.73
2019-01-23T06:57:55.716Z,22.43
2019-01-23T07:00:26.901Z,21.70
2019-01-23T07:02:57.538Z,22.27
2019-01-23T07:05:28.144Z,20.13
2019-01-23T07:07:58.730Z,20.40
2019-01-23T07:10:29.404Z,21.33
2019-01-23T07:13:00.044Z,22.50
2019-01-23T07:15:30.709Z,19.90
2019-01-23T07:18:01.277Z,19.60
2019-01-23T07:20:31.871Z,19.47
2019-01-23T07:23:02.529Z,19.87
2019-01-23T07:25:33.206Z,21.77
2019-01-23T07:28:03.712Z,21.13
2019-01-23T07:30:39.958Z,18.97
2019-01-23T07:33:10.575Z,19.80
2019-01-23T07:35:41.221Z,19.07
2019-01-23T07:38:11.791Z,21.13
2019-01-23T07:40:42.294Z,18.73
2019-01-23T07:43:12.980Z,21.43
2019-01-23T07:45:43.595Z,19.53
2019-01-23T07:48:14.232Z,17.87
2019-01-23T07:50:44.908Z,19.73
2019-01-23T07:53:15.584Z,19.60
2019-01-23T07:55:46.191Z,21.33
2019-01-23T07:58:16.857Z,20.47
2019-01-23T08:00:47.363Z,20.53
2019-01-23T08:03:17.999Z,19.67
2019-01-23T08:05:48.719Z,19.20
2019-01-23T08:08:19.423Z,19.73
2019-01-23T08:10:49.968Z,20.63
2019-01-23T08:13:20.608Z,20.67
2019-01-23T08:15:51.161Z,20.83
2019-01-23T08:18:21.747Z,20.27
2019-01-23T08:20:52.379Z,19.20
2019-01-23T08:23:23.040Z,20.77
2019-01-23T08:25:53.686Z,20.80
2019-01-23T08:28:24.272Z,19.27
2019-01-23T08:30:54.888Z,21.13
2019-01-23T08:33:25.455Z,20.97
2019-01-23T08:36:15.265Z,21.67
2019-01-23T08:38:45.882Z,21.17
2019-01-23T08:41:16.495Z,19.43
2019-01-23T08:43:47.155Z,21.17
2019-01-23T08:46:17.752Z,21.33
2019-01-23T08:48:48.447Z,21.13
2019-01-23T08:51:19.043Z,21.60
2019-01-23T08:53:49.751Z,22.10
2019-01-23T08:56:20.386Z,20.83
2019-01-23T08:58:51.033Z,20.83
2019-01-23T09:01:21.698Z,21.23
2019-01-23T09:03:52.507Z,22.37
2019-01-23T09:06:23.132Z,23.77
2019-01-23T09:08:53.798Z,22.57
2019-01-23T09:11:24.533Z,21.47
2019-01-23T09:13:55.190Z,22.93
2019-01-23T09:16:25.846Z,23.43
2019-01-23T09:18:56.474Z,21.83
2019-01-23T09:21:27.098Z,23.77
2019-01-23T09:23:58.146Z,23.37
2019-01-23T09:26:28.751Z,24.77
2019-01-23T09:28:59.347Z,23.97
2019-01-23T09:32:29.408Z,24.13
2019-01-23T09:35:40.044Z,25.73
2019-01-23T09:38:52.230Z,24.30
2019-01-23T09:42:00.406Z,24.03
2019-01-23T09:45:02.440Z,25.00
2019-01-23T09:47:55.031Z,24.57
2019-01-23T09:51:19.431Z,25.63
2019-01-23T09:53:56.648Z,24.13
2019-01-23T09:56:27.159Z,23.67
2019-01-23T09:58:57.721Z,23.90
2019-01-23T10:01:28.369Z,24.50
2019-01-23T10:03:58.844Z,23.93
2019-01-23T10:06:29.420Z,23.20
2019-01-23T10:08:59.997Z,24.50
2019-01-23T10:11:30.483Z,22.47
2019-01-23T10:14:00.909Z,24.10
2019-01-23T10:16:31.376Z,23.07
2019-01-23T10:19:01.923Z,21.50
2019-01-23T10:21:32.427Z,22.53
2019-01-23T10:24:02.845Z,23.07
2019-01-23T10:26:33.433Z,22.83
2019-01-23T10:29:03.898Z,23.40
2019-01-23T10:31:34.486Z,22.80
2019-01-23T10:34:05.061Z,22.67
2019-01-23T10:36:35.617Z,23.40
2019-01-23T10:39:08.938Z,22.23
2019-01-23T10:41:39.430Z,21.07
2019-01-23T10:44:10.506Z,20.20
2019-01-23T10:46:41.136Z,20.67
2019-01-23T10:49:11.699Z,21.37
2019-01-23T10:51:42.315Z,19.60
2019-01-23T10:54:12.812Z,20.97
2019-01-23T10:56:43.338Z,20.07
2019-01-23T10:59:13.954Z,21.10
2019-01-23T11:01:44.411Z,19.63
2019-01-23T11:04:14.808Z,19.30
2019-01-23T11:06:45.273Z,21.13
2019-01-23T11:09:15.854Z,21.13
2019-01-23T11:11:46.417Z,20.43
2019-01-23T11:14:16.903Z,20.20
2019-01-23T11:16:48.989Z,20.70
2019-01-23T11:19:19.665Z,19.83
2019-01-23T11:21:50.256Z,20.50
2019-01-23T11:24:20.858Z,20.30
2019-01-23T11:26:51.545Z,21.30
2019-01-23T11:29:22.121Z,19.53
2019-01-23T11:31:52.787Z,20.40
2019-01-23T11:34:23.394Z,20.97
2019-01-23T11:36:54.002Z,20.90
2019-01-23T11:39:24.710Z,20.33
2019-01-23T11:41:55.343Z,19.97
2019-01-23T11:44:25.954Z,21.87
2019-01-23T11:46:56.565Z,21.20
2019-01-23T11:49:27.263Z,22.27
2019-01-23T11:51:57.971Z,21.53
2019-01-23T11:54:28.623Z,19.73
2019-01-23T11:56:59.512Z,20.13
2019-01-23T11:59:30.240Z,22.23
2019-01-23T12:02:00.883Z,21.70
2019-01-23T12:04:31.559Z,19.93
2019-01-23T12:07:02.187Z,21.57
2019-01-23T12:09:52.016Z,20.47
2019-01-23T12:12:22.473Z,21.23
2019-01-23T12:14:53.109Z,21.13
2019-01-23T12:17:23.735Z,21.17
2019-01-23T12:19:54.392Z,22.13
2019-01-23T12:22:25.028Z,23.67
2019-01-23T12:24:55.684Z,21.60
2019-01-23T12:27:26.350Z,21.73
2019-01-23T12:29:57.206Z,22.90
2019-01-23T12:32:28.693Z,22.80
2019-01-23T12:35:00.425Z,21.40
2019-01-23T12:37:31.146Z,21.90
2019-01-23T12:40:01.725Z,20.80
2019-01-23T12:42:32.308Z,21.07
2019-01-23T12:45:02.927Z,20.70
2019-01-23T12:47:33.411Z,21.00
2019-01-23T12:50:04.477Z,19.83
2019-01-23T12:52:35.113Z,21.17
2019-01-23T12:55:06.661Z,22.07
2019-01-23T12:57:37.267Z,19.90
2019-01-23T13:00:10.998Z,21.27
2019-01-23T13:02:41.506Z,20.53
2019-01-23T13:05:12.470Z,20.80
2019-01-23T13:07:43.043Z,20.37
2019-01-23T13:10:15.829Z,21.77
2019-01-23T13:12:46.376Z,21.20
2019-01-23T13:15:19.203Z,22.27
2019-01-23T13:17:49.798Z,20.53
2019-01-23T13:20:21.045Z,21.30
2019-01-23T13:22:51.643Z,20.37
2019-01-23T13:25:24.178Z,20.27
2019-01-23T13:27:55.095Z,19.97
2019-01-23T13:30:26.120Z,18.13
2019-01-23T13:32:56.738Z,19.50
2019-01-23T13:35:30.634Z,20.17
2019-01-23T13:38:01.700Z,19.23
2019-01-23T13:40:34.498Z,19.30
2019-01-23T13:43:06.484Z,18.40
2019-01-23T13:45:36.971Z,20.20
2019-01-23T13:48:09.159Z,21.43
2019-01-23T13:50:39.776Z,19.67
2019-01-23T13:53:10.240Z,21.17
2019-01-23T13:55:40.847Z,20.10
2019-01-23T13:58:11.474Z,20.83
2019-01-23T14:00:42.849Z,20.27
2019-01-23T14:03:13.456Z,21.67
2019-01-23T14:05:44.112Z,22.60
2019-01-23T14:08:16.078Z,21.60
2019-01-23T14:10:46.785Z,22.13
2019-01-23T14:13:17.321Z,21.37
2019-01-23T14:15:47.888Z,23.57
2019-01-23T14:18:18.354Z,22.83
2019-01-23T14:20:48.990Z,22.43
2019-01-23T14:23:20.789Z,21.63
2019-01-23T14:25:51.573Z,21.33
2019-01-23T14:28:22.179Z,21.90
2019-01-23T14:30:52.726Z,22.03
2019-01-23T14:33:23.253Z,21.43
2019-01-23T14:35:53.908Z,23.40
2019-01-23T14:38:24.548Z,23.23
2019-01-23T14:40:55.021Z,23.27
2019-01-23T14:43:25.578Z,24.63
2019-01-23T14:45:56.093Z,25.13
2019-01-23T14:48:26.910Z,24.47
2019-01-23T14:50:57.527Z,22.43
2019-01-23T14:53:28.102Z,23.70
2019-01-23T14:55:58.679Z,22.30
2019-01-23T14:58:29.238Z,22.70
2019-01-23T15:00:59.740Z,22.00
2019-01-23T15:03:30.331Z,24.37
2019-01-23T15:06:00.934Z,25.83
2019-01-23T15:08:31.501Z,23.83
2019-01-23T15:11:01.286Z,22.33
2019-01-23T15:13:31.923Z,22.03
2019-01-23T15:16:02.559Z,22.03
2019-01-23T15:18:33.145Z,22.10
2019-01-23T15:21:03.753Z,22.33
2019-01-23T15:23:35.638Z,21.90
2019-01-23T15:26:06.255Z,23.47
2019-01-23T15:28:36.753Z,26.30
2019-01-23T15:31:07.190Z,26.10
2019-01-23T15:33:37.823Z,25.00
2019-01-23T15:36:08.410Z,23.07
2019-01-23T15:38:39.021Z,24.23
2019-01-23T15:41:09.603Z,24.03
2019-01-23T15:43:40.183Z,23.50
2019-01-23T15:46:10.815Z,23.10
2019-01-23T15:48:41.431Z,23.63
2019-01-23T15:51:12.061Z,21.13
2019-01-23T15:53:42.755Z,21.17
2019-01-23T15:56:13.341Z,23.13
2019-01-23T15:58:44.998Z,22.07
2019-01-23T16:01:15.626Z,22.40
2019-01-23T16:03:46.860Z,23.53
2019-01-23T16:06:17.476Z,22.93
2019-01-23T16:08:48.104Z,21.90
2019-01-23T16:11:18.712Z,23.80
2019-01-23T16:13:49.355Z,22.77
2019-01-23T16:16:19.972Z,24.70
2019-01-23T16:18:50.529Z,23.57
2019-01-23T16:21:21.142Z,21.27
2019-01-23T16:23:51.771Z,22.90
2019-01-23T16:26:22.402Z,24.00
2019-01-23T16:28:53.093Z,24.77
2019-01-23T16:31:23.712Z,23.53
2019-01-23T16:33:54.285Z,24.40
2019-01-23T16:36:24.902Z,24.20
2019-01-23T16:38:55.529Z,23.67
2019-01-23T16:41:26.175Z,23.40
2019-01-23T16:43:56.752Z,23.17
2019-01-23T16:46:27.388Z,23.73
2019-01-23T16:48:58.054Z,22.97
2019-01-23T16:51:28.594Z,23.73
2019-01-23T16:53:59.156Z,23.73
2019-01-23T16:56:29.673Z,23.03
2019-01-23T16:59:00.210Z,23.60
2019-01-23T17:01:30.716Z,24.03
2019-01-23T17:04:01.343Z,23.17
2019-01-23T17:06:31.799Z,22.93
2019-01-23T17:09:02.355Z,23.17
2019-01-23T17:11:32.963Z,22.20
2019-01-23T17:14:03.557Z,23.20
2019-01-23T17:16:34.206Z,21.30
2019-01-23T17:19:04.631Z,22.33
2019-01-23T17:21:35.126Z,23.93
2019-01-23T17:24:06.043Z,21.90
2019-01-23T17:26:36.559Z,23.13
2019-01-23T17:29:07.177Z,21.07
2019-01-23T17:31:37.792Z,22.20
2019-01-23T17:34:08.359Z,23.37
2019-01-23T17:36:39.046Z,22.60
2019-01-23T17:39:10.329Z,20.77
2019-01-23T17:41:40.938Z,20.83
2019-01-23T17:44:11.535Z,22.33
2019-01-23T17:46:42.401Z,20.17
2019-01-23T17:49:13.307Z,21.97
2019-01-23T17:51:44.223Z,22.77
2019-01-23T17:54:14.879Z,21.60
2019-01-23T17:56:45.537Z,22.50
2019-01-23T17:59:16.153Z,21.23
2019-01-23T18:01:46.829Z,21.43
2019-01-23T18:04:18.512Z,20.83
2019-01-23T18:06:49.073Z,20.17
2019-01-23T18:09:19.638Z,20.57
2019-01-23T18:11:50.255Z,21.03
2019-01-23T18:14:20.840Z,21.20
2019-01-23T18:16:51.416Z,21.17
2019-01-23T18:19:21.995Z,21.57
2019-01-23T18:21:52.633Z,21.70
2019-01-23T18:24:23.256Z,21.63
2019-01-23T18:26:53.923Z,22.03
2019-01-23T18:29:24.492Z,23.50
2019-01-23T18:32:02.016Z,21.80
2019-01-23T18:35:23.287Z,20.57
2019-01-23T18:38:13.334Z,21.37
2019-01-23T18:41:03.377Z,23.30
2019-01-23T18:44:15.444Z,23.20
2019-01-23T18:47:30.272Z,22.33
2019-01-23T18:50:41.149Z,20.43
2019-01-23T18:53:11.713Z,23.30
2019-01-23T18:55:42.350Z,23.60
2019-01-23T18:58:13.017Z,29.13
2019-01-23T19:00:43.673Z,29.70
2019-01-23T19:03:14.259Z,28.53
2019-01-23T19:05:44.767Z,23.23
2019-01-23T19:08:15.682Z,24.30
2019-01-23T19:10:46.287Z,22.97
2019-01-23T19:13:16.994Z,24.07
2019-01-23T19:15:47.622Z,22.63
2019-01-23T19:18:18.346Z,24.00
2019-01-23T19:20:48.994Z,24.10
2019-01-23T19:23:19.589Z,23.93
2019-01-23T19:25:51.206Z,23.60
2019-01-23T19:28:22.032Z,23.93
2019-01-23T19:30:52.724Z,23.30
2019-01-23T19:33:23.346Z,23.03
2019-01-23T19:35:54.023Z,23.17
2019-01-23T19:38:24.597Z,23.10
2019-01-23T19:40:55.235Z,22.97
2019-01-23T19:43:25.781Z,22.90
2019-01-23T19:45:56.457Z,22.80
2019-01-23T19:48:27.097Z,22.77
2019-01-23T19:50:57.719Z,21.90
2019-01-23T19:53:28.366Z,23.17
2019-01-23T19:55:58.993Z,20.97
2019-01-23T19:58:48.783Z,21.77
2019-01-23T20:01:19.472Z,22.53
2019-01-23T20:03:50.115Z,22.20
2019-01-23T20:06:39.937Z,23.60
2019-01-23T20:09:11.164Z,23.13
2019-01-23T20:11:41.887Z,21.57
2019-01-23T20:14:12.498Z,21.10
2019-01-23T20:16:43.092Z,23.97
2019-01-23T20:19:14.959Z,22.70
2019-01-23T20:21:45.607Z,22.90
2019-01-23T20:24:16.261Z,21.27
2019-01-23T20:26:46.897Z,23.03
2019-01-23T20:29:17.544Z,22.33
2019-01-23T20:31:48.230Z,21.80
2019-01-23T20:34:18.854Z,22.63
2019-01-23T20:36:49.527Z,23.07
2019-01-23T20:39:20.169Z,22.47
2019-01-23T20:41:50.776Z,22.17
2019-01-23T20:44:21.434Z,21.47
2019-01-23T20:46:52.059Z,22.60
2019-01-23T20:49:22.635Z,23.33
2019-01-23T20:51:53.320Z,21.80
2019-01-23T20:54:23.920Z,22.23
2019-01-23T20:56:54.643Z,21.97
2019-01-23T20:59:25.229Z,21.60
2019-01-23T21:01:55.870Z,23.17
2019-01-23T21:04:26.502Z,23.37
2019-01-23T21:06:57.179Z,22.53
2019-01-23T21:09:27.785Z,23.43
2019-01-23T21:11:58.346Z,25.47
2019-01-23T21:14:28.967Z,26.97
2019-01-23T21:16:59.576Z,26.70
2019-01-23T21:19:30.140Z,25.87
2019-01-23T21:22:00.806Z,29.00
2019-01-23T21:24:31.425Z,28.57
2019-01-23T21:27:02.095Z,29.17
2019-01-23T21:29:32.737Z,25.77
2019-01-23T21:32:03.483Z,26.53
2019-01-23T21:34:34.178Z,27.13
2019-01-23T21:37:04.794Z,26.10
2019-01-23T21:39:36.356Z,26.40
2019-01-23T21:42:06.918Z,24.37
2019-01-23T21:44:37.573Z,25.30
2019-01-23T21:47:08.160Z,23.67
2019-01-23T21:49:38.770Z,21.80
2019-01-23T21:52:09.344Z,21.70
2019-01-23T21:54:40.000Z,23.40
2019-01-23T21:57:10.615Z,21.53
2019-01-23T21:59:41.302Z,21.93
2019-01-23T22:02:11.928Z,23.07
2019-01-23T22:04:42.564Z,21.87
2019-01-23T22:07:13.053Z,23.37
2019-01-23T22:09:43.730Z,22.47
2019-01-23T22:12:14.203Z,20.40
2019-01-23T22:14:44.790Z,24.03
2019-01-23T22:17:15.266Z,24.40
2019-01-23T22:19:45.874Z,27.17
2019-01-23T22:22:16.489Z,26.67
2019-01-23T22:24:46.987Z,22.20
2019-01-23T22:27:17.572Z,22.20
2019-01-23T22:29:48.208Z,21.70
2019-01-23T22:32:18.604Z,21.17
2019-01-23T22:34:49.081Z,22.60
2019-01-23T22:37:19.497Z,21.60
2019-01-23T22:39:50.124Z,22.73
2019-01-23T22:42:20.590Z,20.83
2019-01-23T22:44:51.188Z,20.97
2019-01-23T22:47:21.662Z,20.27
2019-01-23T22:49:52.264Z,21.73
2019-01-23T22:52:22.846Z,21.63
2019-01-23T22:54:53.472Z,22.47
2019-01-23T22:57:24.098Z,22.87
2019-01-23T22:59:54.607Z,22.47
2019-01-23T23:02:25.122Z,21.83
2019-01-23T23:04:55.688Z,21.13
2019-01-23T23:07:26.323Z,21.33
2019-01-23T23:09:56.780Z,21.33
2019-01-23T23:12:27.356Z,20.50
2019-01-23T23:14:57.962Z,19.40
2019-01-23T23:17:28.470Z,20.40
2019-01-23T23:19:58.924Z,20.63
2019-01-23T23:22:29.442Z,20.53
2019-01-23T23:24:59.932Z,18.83
2019-01-23T23:27:30.404Z,20.90
2019-01-23T23:30:00.990Z,19.77
2019-01-23T23:32:31.563Z,19.23
2019-01-23T23:35:03.323Z,19.53
2019-01-23T23:37:33.810Z,20.57
2019-01-23T23:40:05.176Z,20.80
2019-01-23T23:42:35.813Z,20.03
2019-01-23T23:45:07.730Z,19.63
2019-01-23T23:47:38.356Z,20.33
2019-01-23T23:50:10.453Z,19.40
2019-01-23T23:52:41.049Z,21.40
2019-01-23T23:55:11.655Z,20.33
2019-01-23T23:57:42.298Z,20.70
